sensor_id;sensor_type;location;lat;lon;timestamp;pressure;altitude;pressure_sealevel;temperature;humidity
69717;BME280;67420;46.144;19.666;2023-12-20T00:09:32;100268.44;;;20.58;59.87
69717;BME280;67420;46.144;19.666;2023-12-20T00:19:34;100248.84;;;20.58;59.25
69717;BME280;67420;46.144;19.666;2023-12-20T00:29:36;100233.50;;;20.60;59.69
69717;BME280;67420;46.144;19.666;2023-12-20T00:39:38;100226.34;;;20.60;59.76
69717;BME280;67420;46.144;19.666;2023-12-20T00:49:40;100213.31;;;20.56;59.58
69717;BME280;67420;46.144;19.666;2023-12-20T00:59:41;100201.63;;;20.57;59.80
69717;BME280;67420;46.144;19.666;2023-12-20T01:09:43;100191.06;;;20.55;59.91
69717;BME280;67420;46.144;19.666;2023-12-20T01:19:45;100172.59;;;20.52;59.74
69717;BME280;67420;46.144;19.666;2023-12-20T01:29:48;100172.19;;;20.57;59.76
69717;BME280;67420;46.144;19.666;2023-12-20T01:39:49;100147.38;;;20.55;59.86
69717;BME280;67420;46.144;19.666;2023-12-20T01:49:51;100129.47;;;20.55;59.80
69717;BME280;67420;46.144;19.666;2023-12-20T01:59:53;100083.78;;;20.47;60.12
69717;BME280;67420;46.144;19.666;2023-12-20T02:09:55;100091.25;;;20.53;60.20
69717;BME280;67420;46.144;19.666;2023-12-20T02:19:57;100077.88;;;20.53;60.33
69717;BME280;67420;46.144;19.666;2023-12-20T02:30:00;100060.97;;;20.53;60.42
69717;BME280;67420;46.144;19.666;2023-12-20T02:40:02;100051.09;;;20.53;60.49
69717;BME280;67420;46.144;19.666;2023-12-20T02:50:06;100032.53;;;20.52;60.08
69717;BME280;67420;46.144;19.666;2023-12-20T03:00:09;100031.22;;;20.46;60.03
69717;BME280;67420;46.144;19.666;2023-12-20T03:10:12;100020.06;;;20.41;59.28
69717;BME280;67420;46.144;19.666;2023-12-20T03:20:24;99993.56;;;20.38;58.77
69717;BME280;67420;46.144;19.666;2023-12-20T03:30:27;99986.72;;;20.34;58.61
69717;BME280;67420;46.144;19.666;2023-12-20T03:40:29;99977.84;;;20.33;58.44
69717;BME280;67420;46.144;19.666;2023-12-20T03:50:31;99947.09;;;20.18;58.10
69717;BME280;67420;46.144;19.666;2023-12-20T04:00:33;99942.75;;;20.27;58.14
69717;BME280;67420;46.144;19.666;2023-12-20T04:10:35;99953.44;;;20.27;57.89
69717;BME280;67420;46.144;19.666;2023-12-20T04:20:39;99948.53;;;20.22;57.34
69717;BME280;67420;46.144;19.666;2023-12-20T04:30:41;99936.25;;;20.20;57.71
69717;BME280;67420;46.144;19.666;2023-12-20T04:40:44;99919.75;;;20.15;57.38
69717;BME280;67420;46.144;19.666;2023-12-20T04:50:46;99895.00;;;20.22;57.15
69717;BME280;67420;46.144;19.666;2023-12-20T05:00:48;99915.69;;;20.20;57.74
69717;BME280;67420;46.144;19.666;2023-12-20T05:10:51;99893.69;;;20.17;57.55
69717;BME280;67420;46.144;19.666;2023-12-20T05:20:53;99885.22;;;20.12;57.24
69717;BME280;67420;46.144;19.666;2023-12-20T05:30:59;99888.22;;;20.18;57.70
69717;BME280;67420;46.144;19.666;2023-12-20T05:41:01;99884.38;;;20.11;57.86
69717;BME280;67420;46.144;19.666;2023-12-20T05:51:03;99881.84;;;20.10;57.38
69717;BME280;67420;46.144;19.666;2023-12-20T06:01:05;99872.25;;;20.07;57.46
69717;BME280;67420;46.144;19.666;2023-12-20T06:11:09;99877.00;;;20.04;57.13
69717;BME280;67420;46.144;19.666;2023-12-20T06:21:11;99889.66;;;20.02;56.61
69717;BME280;67420;46.144;19.666;2023-12-20T06:31:14;99863.34;;;19.97;56.64
69717;BME280;67420;46.144;19.666;2023-12-20T06:41:17;99890.69;;;20.01;56.63
69717;BME280;67420;46.144;19.666;2023-12-20T06:51:19;99891.78;;;19.98;56.66
69717;BME280;67420;46.144;19.666;2023-12-20T07:01:22;99898.38;;;19.94;56.32
69717;BME280;67420;46.144;19.666;2023-12-20T07:11:24;99906.28;;;19.95;56.56
69717;BME280;67420;46.144;19.666;2023-12-20T07:21:26;99917.59;;;20.09;56.92
69717;BME280;67420;46.144;19.666;2023-12-20T07:31:28;99911.97;;;20.12;56.96
69717;BME280;67420;46.144;19.666;2023-12-20T07:41:30;99905.53;;;20.14;56.90
69717;BME280;67420;46.144;19.666;2023-12-20T07:51:32;99892.84;;;20.16;57.04
69717;BME280;67420;46.144;19.666;2023-12-20T08:01:34;99884.16;;;20.24;57.19
69717;BME280;67420;46.144;19.666;2023-12-20T08:11:36;99878.69;;;20.25;57.07
69717;BME280;67420;46.144;19.666;2023-12-20T08:21:38;99883.59;;;20.30;56.09
69717;BME280;67420;46.144;19.666;2023-12-20T08:31:40;99873.03;;;20.28;56.46
69717;BME280;67420;46.144;19.666;2023-12-20T08:41:42;99856.81;;;20.20;56.14
69717;BME280;67420;46.144;19.666;2023-12-20T08:51:44;99862.97;;;20.11;56.44
69717;BME280;67420;46.144;19.666;2023-12-20T09:01:46;99852.81;;;20.05;56.08
69717;BME280;67420;46.144;19.666;2023-12-20T09:11:49;99836.41;;;20.19;54.62
69717;BME280;67420;46.144;19.666;2023-12-20T09:21:53;99831.91;;;20.29;54.16
69717;BME280;67420;46.144;19.666;2023-12-20T09:31:55;99818.97;;;20.25;55.09
69717;BME280;67420;46.144;19.666;2023-12-20T09:42:02;99793.91;;;20.36;55.40
69717;BME280;67420;46.144;19.666;2023-12-20T09:52:05;99814.59;;;20.24;55.12
69717;BME280;67420;46.144;19.666;2023-12-20T10:02:13;99812.00;;;20.13;55.41
69717;BME280;67420;46.144;19.666;2023-12-20T10:12:16;99827.66;;;20.17;54.78
69717;BME280;67420;46.144;19.666;2023-12-20T10:22:19;99822.31;;;20.17;54.41
69717;BME280;67420;46.144;19.666;2023-12-20T10:32:22;99799.47;;;20.13;53.87
69717;BME280;67420;46.144;19.666;2023-12-20T10:42:26;99794.25;;;20.12;53.87
69717;BME280;67420;46.144;19.666;2023-12-20T10:52:29;99788.19;;;20.10;53.84
69717;BME280;67420;46.144;19.666;2023-12-20T11:02:32;99786.63;;;20.07;53.36
69717;BME280;67420;46.144;19.666;2023-12-20T11:13:10;99772.56;;;20.05;53.37
69717;BME280;67420;46.144;19.666;2023-12-20T11:23:14;99773.41;;;20.06;53.06
69717;BME280;67420;46.144;19.666;2023-12-20T11:33:21;99765.38;;;20.06;52.78
69717;BME280;67420;46.144;19.666;2023-12-20T11:43:36;99759.44;;;20.02;53.17
69717;BME280;67420;46.144;19.666;2023-12-20T11:53:39;99756.63;;;20.04;52.88
69717;BME280;67420;46.144;19.666;2023-12-20T12:03:41;99740.72;;;20.02;53.10
69717;BME280;67420;46.144;19.666;2023-12-20T12:13:44;99747.34;;;19.98;52.69
69717;BME280;67420;46.144;19.666;2023-12-20T12:23:47;99743.00;;;19.97;52.72
69717;BME280;67420;46.144;19.666;2023-12-20T12:33:49;99738.75;;;19.94;52.49
69717;BME280;67420;46.144;19.666;2023-12-20T12:43:50;99729.88;;;19.94;52.59
69717;BME280;67420;46.144;19.666;2023-12-20T12:53:53;99731.97;;;19.90;52.52
69717;BME280;67420;46.144;19.666;2023-12-20T13:03:54;99729.72;;;19.86;52.25
69717;BME280;67420;46.144;19.666;2023-12-20T13:13:57;99733.09;;;19.88;52.20
69717;BME280;67420;46.144;19.666;2023-12-20T13:24:02;99728.59;;;19.88;52.08
69717;BME280;67420;46.144;19.666;2023-12-20T13:34:04;99747.44;;;19.87;52.53
69717;BME280;67420;46.144;19.666;2023-12-20T13:44:06;99752.78;;;19.87;51.88
69717;BME280;67420;46.144;19.666;2023-12-20T13:54:08;99743.78;;;19.88;52.05
69717;BME280;67420;46.144;19.666;2023-12-20T14:04:12;99722.53;;;19.86;51.84
69717;BME280;67420;46.144;19.666;2023-12-20T14:14:34;99737.72;;;19.86;51.66
69717;BME280;67420;46.144;19.666;2023-12-20T14:24:35;99726.31;;;19.84;52.04
69717;BME280;67420;46.144;19.666;2023-12-20T14:34:38;99754.63;;;19.86;51.95
69717;BME280;67420;46.144;19.666;2023-12-20T14:44:40;99740.66;;;19.83;51.49
69717;BME280;67420;46.144;19.666;2023-12-20T14:54:43;99735.78;;;19.88;51.66
69717;BME280;67420;46.144;19.666;2023-12-20T15:04:46;99750.84;;;19.89;52.06
69717;BME280;67420;46.144;19.666;2023-12-20T15:14:48;99731.81;;;19.82;51.97
69717;BME280;67420;46.144;19.666;2023-12-20T15:24:50;99762.25;;;19.91;51.65
69717;BME280;67420;46.144;19.666;2023-12-20T15:34:53;99770.13;;;19.92;52.57
69717;BME280;67420;46.144;19.666;2023-12-20T15:44:55;99777.72;;;19.87;53.13
69717;BME280;67420;46.144;19.666;2023-12-20T15:54:57;99786.72;;;19.86;53.37
69717;BME280;67420;46.144;19.666;2023-12-20T16:04:59;99805.56;;;19.85;53.46
69717;BME280;67420;46.144;19.666;2023-12-20T16:15:01;99811.75;;;19.85;53.61
69717;BME280;67420;46.144;19.666;2023-12-20T16:25:05;99813.59;;;19.85;53.59
69717;BME280;67420;46.144;19.666;2023-12-20T16:35:07;99819.78;;;19.85;53.66
69717;BME280;67420;46.144;19.666;2023-12-20T16:45:09;99834.97;;;19.85;53.58
69717;BME280;67420;46.144;19.666;2023-12-20T16:55:11;99849.34;;;19.84;53.77
69717;BME280;67420;46.144;19.666;2023-12-20T17:05:13;99874.97;;;19.86;53.93
69717;BME280;67420;46.144;19.666;2023-12-20T17:15:15;99876.91;;;19.84;53.60
69717;BME280;67420;46.144;19.666;2023-12-20T17:25:17;99895.25;;;19.89;54.01
69717;BME280;67420;46.144;19.666;2023-12-20T17:35:19;99912.09;;;20.01;53.97
69717;BME280;67420;46.144;19.666;2023-12-20T17:45:21;99920.91;;;20.01;54.11
69717;BME280;67420;46.144;19.666;2023-12-20T17:55:24;99924.91;;;20.07;53.81
69717;BME280;67420;46.144;19.666;2023-12-20T18:05:26;99930.13;;;20.08;53.58
69717;BME280;67420;46.144;19.666;2023-12-20T18:15:28;99954.78;;;20.12;53.76
69717;BME280;67420;46.144;19.666;2023-12-20T18:25:29;99944.34;;;20.09;53.78
69717;BME280;67420;46.144;19.666;2023-12-20T18:35:31;99950.03;;;20.15;53.59
69717;BME280;67420;46.144;19.666;2023-12-20T18:45:35;99951.84;;;20.15;53.49
69717;BME280;67420;46.144;19.666;2023-12-20T18:55:37;99949.75;;;20.18;53.63
69717;BME280;67420;46.144;19.666;2023-12-20T19:05:39;99962.03;;;20.21;53.77
69717;BME280;67420;46.144;19.666;2023-12-20T19:15:41;99971.88;;;20.20;53.80
69717;BME280;67420;46.144;19.666;2023-12-20T19:25:43;99982.47;;;20.22;53.35
69717;BME280;67420;46.144;19.666;2023-12-20T19:35:45;99982.31;;;20.23;53.81
69717;BME280;67420;46.144;19.666;2023-12-20T19:45:47;99963.72;;;20.22;53.83
69717;BME280;67420;46.144;19.666;2023-12-20T19:55:49;99969.94;;;20.22;53.39
69717;BME280;67420;46.144;19.666;2023-12-20T20:05:51;99976.00;;;20.24;53.36
69717;BME280;67420;46.144;19.666;2023-12-20T20:15:53;99958.78;;;20.27;53.52
69717;BME280;67420;46.144;19.666;2023-12-20T20:25:55;99965.84;;;20.28;54.61
69717;BME280;67420;46.144;19.666;2023-12-20T20:35:57;99974.72;;;20.28;54.45
69717;BME280;67420;46.144;19.666;2023-12-20T20:45:59;99981.34;;;20.24;54.50
69717;BME280;67420;46.144;19.666;2023-12-20T20:56:04;99999.09;;;20.25;54.54
69717;BME280;67420;46.144;19.666;2023-12-20T21:06:06;99987.81;;;20.22;54.65
69717;BME280;67420;46.144;19.666;2023-12-20T21:16:08;99988.66;;;20.22;54.42
69717;BME280;67420;46.144;19.666;2023-12-20T21:26:12;99997.66;;;20.21;54.75
69717;BME280;67420;46.144;19.666;2023-12-20T21:36:14;100004.72;;;20.22;54.86
69717;BME280;67420;46.144;19.666;2023-12-20T21:46:18;100011.91;;;20.22;54.51
69717;BME280;67420;46.144;19.666;2023-12-20T21:56:20;99996.22;;;20.17;54.68
69717;BME280;67420;46.144;19.666;2023-12-20T22:06:22;100000.34;;;20.21;54.86
69717;BME280;67420;46.144;19.666;2023-12-20T22:16:24;99990.50;;;20.22;54.67
69717;BME280;67420;46.144;19.666;2023-12-20T22:26:26;99988.91;;;20.19;54.43
69717;BME280;67420;46.144;19.666;2023-12-20T22:36:29;99979.91;;;20.20;54.71
69717;BME280;67420;46.144;19.666;2023-12-20T22:46:31;99963.84;;;20.20;54.61
69717;BME280;67420;46.144;19.666;2023-12-20T22:56:35;99942.44;;;20.20;54.39
69717;BME280;67420;46.144;19.666;2023-12-20T23:06:37;99926.41;;;20.20;54.24
69717;BME280;67420;46.144;19.666;2023-12-20T23:16:39;99921.75;;;20.22;54.49
69717;BME280;67420;46.144;19.666;2023-12-20T23:26:41;99916.28;;;20.24;54.34
69717;BME280;67420;46.144;19.666;2023-12-20T23:36:44;99927.97;;;20.23;54.00
69717;BME280;67420;46.144;19.666;2023-12-20T23:46:46;99933.19;;;20.24;54.02
69717;BME280;67420;46.144;19.666;2023-12-20T23:56:47;99945.41;;;20.27;54.17
